sensor_id;sensor_type;location;lat;lon;timestamp;P1;durP1;ratioP1;P2;durP2;ratioP2
44452;SDS011;30155;52.164;21.236;2022-11-14T00:00:07;31.10;;;17.92;;
44452;SDS011;30155;52.164;21.236;2022-11-14T00:05:23;29.05;;;18.35;;
44452;SDS011;30155;52.164;21.236;2022-11-14T00:10:32;27.82;;;17.32;;
44452;SDS011;30155;52.164;21.236;2022-11-14T00:15:41;32.75;;;19.32;;
44452;SDS011;30155;52.164;21.236;2022-11-14T00:20:53;36.63;;;19.25;;
44452;SDS011;30155;52.164;21.236;2022-11-14T00:26:03;30.05;;;17.85;;
44452;SDS011;30155;52.164;21.236;2022-11-14T00:31:15;31.20;;;18.27;;
44452;SDS011;30155;52.164;21.236;2022-11-14T00:36:25;38.83;;;18.48;;
44452;SDS011;30155;52.164;21.236;2022-11-14T00:41:34;39.40;;;20.45;;
44452;SDS011;30155;52.164;21.236;2022-11-14T00:46:44;37.00;;;20.37;;
44452;SDS011;30155;52.164;21.236;2022-11-14T00:51:54;36.60;;;19.15;;
44452;SDS011;30155;52.164;21.236;2022-11-14T00:57:03;42.38;;;20.85;;
44452;SDS011;30155;52.164;21.236;2022-11-14T01:02:17;38.98;;;19.50;;
44452;SDS011;30155;52.164;21.236;2022-11-14T01:07:38;41.28;;;19.23;;
44452;SDS011;30155;52.164;21.236;2022-11-14T01:12:52;41.18;;;20.12;;
44452;SDS011;30155;52.164;21.236;2022-11-14T01:18:02;40.00;;;20.30;;
44452;SDS011;30155;52.164;21.236;2022-11-14T01:23:14;38.88;;;20.68;;
44452;SDS011;30155;52.164;21.236;2022-11-14T01:28:25;37.73;;;19.17;;
44452;SDS011;30155;52.164;21.236;2022-11-14T01:33:37;33.80;;;20.37;;
44452;SDS011;30155;52.164;21.236;2022-11-14T01:38:52;27.48;;;18.45;;
44452;SDS011;30155;52.164;21.236;2022-11-14T01:44:10;30.65;;;18.42;;
44452;SDS011;30155;52.164;21.236;2022-11-14T01:49:25;27.00;;;16.02;;
44452;SDS011;30155;52.164;21.236;2022-11-14T01:54:43;28.73;;;17.67;;
44452;SDS011;30155;52.164;21.236;2022-11-14T01:59:58;26.27;;;16.93;;
44452;SDS011;30155;52.164;21.236;2022-11-14T02:05:14;26.37;;;15.90;;
44452;SDS011;30155;52.164;21.236;2022-11-14T02:10:25;27.15;;;16.80;;
44452;SDS011;30155;52.164;21.236;2022-11-14T02:15:37;31.25;;;17.70;;
44452;SDS011;30155;52.164;21.236;2022-11-14T02:20:53;29.00;;;17.23;;
44452;SDS011;30155;52.164;21.236;2022-11-14T02:26:02;27.80;;;16.50;;
44452;SDS011;30155;52.164;21.236;2022-11-14T02:31:12;28.32;;;16.45;;
44452;SDS011;30155;52.164;21.236;2022-11-14T02:36:22;27.45;;;16.45;;
44452;SDS011;30155;52.164;21.236;2022-11-14T02:41:33;27.27;;;16.50;;
44452;SDS011;30155;52.164;21.236;2022-11-14T02:46:47;25.50;;;15.48;;
44452;SDS011;30155;52.164;21.236;2022-11-14T02:51:54;28.55;;;16.52;;
44452;SDS011;30155;52.164;21.236;2022-11-14T02:57:04;26.55;;;16.82;;
44452;SDS011;30155;52.164;21.236;2022-11-14T03:02:13;31.45;;;17.23;;
44452;SDS011;30155;52.164;21.236;2022-11-14T03:07:23;26.82;;;17.62;;
44452;SDS011;30155;52.164;21.236;2022-11-14T03:12:33;29.82;;;19.02;;
44452;SDS011;30155;52.164;21.236;2022-11-14T03:17:42;27.82;;;17.55;;
44452;SDS011;30155;52.164;21.236;2022-11-14T03:22:52;28.92;;;18.27;;
44452;SDS011;30155;52.164;21.236;2022-11-14T03:28:02;38.98;;;22.80;;
44452;SDS011;30155;52.164;21.236;2022-11-14T03:33:13;33.88;;;19.75;;
44452;SDS011;30155;52.164;21.236;2022-11-14T03:38:24;33.53;;;21.20;;
44452;SDS011;30155;52.164;21.236;2022-11-14T03:43:34;32.23;;;21.52;;
44452;SDS011;30155;52.164;21.236;2022-11-14T03:48:43;36.80;;;22.42;;
44452;SDS011;30155;52.164;21.236;2022-11-14T03:53:53;35.40;;;22.73;;
44452;SDS011;30155;52.164;21.236;2022-11-14T03:59:02;37.88;;;24.95;;
44452;SDS011;30155;52.164;21.236;2022-11-14T04:04:12;36.90;;;21.68;;
44452;SDS011;30155;52.164;21.236;2022-11-14T04:09:22;41.23;;;25.75;;
44452;SDS011;30155;52.164;21.236;2022-11-14T04:14:31;40.28;;;24.90;;
44452;SDS011;30155;52.164;21.236;2022-11-14T04:19:41;41.35;;;26.02;;
44452;SDS011;30155;52.164;21.236;2022-11-14T04:24:50;37.05;;;24.30;;
44452;SDS011;30155;52.164;21.236;2022-11-14T04:30:00;36.40;;;24.47;;
44452;SDS011;30155;52.164;21.236;2022-11-14T04:35:10;33.60;;;20.95;;
44452;SDS011;30155;52.164;21.236;2022-11-14T04:40:19;30.45;;;21.00;;
44452;SDS011;30155;52.164;21.236;2022-11-14T04:45:29;29.90;;;18.70;;
44452;SDS011;30155;52.164;21.236;2022-11-14T04:50:38;29.27;;;18.48;;
44452;SDS011;30155;52.164;21.236;2022-11-14T04:55:48;25.00;;;16.67;;
44452;SDS011;30155;52.164;21.236;2022-11-14T05:00:57;24.67;;;16.15;;
44452;SDS011;30155;52.164;21.236;2022-11-14T05:06:07;22.15;;;16.30;;
44452;SDS011;30155;52.164;21.236;2022-11-14T05:11:18;22.17;;;15.50;;
44452;SDS011;30155;52.164;21.236;2022-11-14T05:16:28;21.02;;;13.45;;
44452;SDS011;30155;52.164;21.236;2022-11-14T05:21:38;22.05;;;15.50;;
44452;SDS011;30155;52.164;21.236;2022-11-14T05:26:48;22.48;;;15.00;;
44452;SDS011;30155;52.164;21.236;2022-11-14T05:32:02;21.68;;;14.10;;
44452;SDS011;30155;52.164;21.236;2022-11-14T05:37:16;21.33;;;14.65;;
44452;SDS011;30155;52.164;21.236;2022-11-14T05:42:30;20.80;;;14.50;;
44452;SDS011;30155;52.164;21.236;2022-11-14T05:47:46;19.98;;;14.00;;
44452;SDS011;30155;52.164;21.236;2022-11-14T05:53:05;21.07;;;13.38;;
44452;SDS011;30155;52.164;21.236;2022-11-14T05:58:14;20.52;;;13.85;;
44452;SDS011;30155;52.164;21.236;2022-11-14T06:03:28;22.60;;;14.35;;
44452;SDS011;30155;52.164;21.236;2022-11-14T06:08:49;20.35;;;12.45;;
44452;SDS011;30155;52.164;21.236;2022-11-14T06:14:00;20.17;;;12.37;;
44452;SDS011;30155;52.164;21.236;2022-11-14T06:19:13;19.02;;;12.80;;
44452;SDS011;30155;52.164;21.236;2022-11-14T06:24:33;20.70;;;12.75;;
44452;SDS011;30155;52.164;21.236;2022-11-14T06:29:46;19.15;;;11.75;;
44452;SDS011;30155;52.164;21.236;2022-11-14T06:34:57;19.98;;;10.53;;
44452;SDS011;30155;52.164;21.236;2022-11-14T06:40:11;17.48;;;11.38;;
44452;SDS011;30155;52.164;21.236;2022-11-14T06:45:23;18.00;;;9.70;;
44452;SDS011;30155;52.164;21.236;2022-11-14T06:50:37;12.88;;;8.88;;
44452;SDS011;30155;52.164;21.236;2022-11-14T06:55:56;11.95;;;8.80;;
44452;SDS011;30155;52.164;21.236;2022-11-14T07:06:24;12.07;;;8.48;;
44452;SDS011;30155;52.164;21.236;2022-11-14T07:11:38;10.58;;;7.97;;
44452;SDS011;30155;52.164;21.236;2022-11-14T07:16:55;14.25;;;8.20;;
44452;SDS011;30155;52.164;21.236;2022-11-14T07:22:06;10.98;;;7.97;;
44452;SDS011;30155;52.164;21.236;2022-11-14T07:27:15;11.33;;;8.13;;
44452;SDS011;30155;52.164;21.236;2022-11-14T07:32:25;10.95;;;7.42;;
44452;SDS011;30155;52.164;21.236;2022-11-14T07:37:35;13.50;;;8.75;;
44452;SDS011;30155;52.164;21.236;2022-11-14T07:42:47;12.03;;;8.15;;
44452;SDS011;30155;52.164;21.236;2022-11-14T07:47:59;9.53;;;7.47;;
44452;SDS011;30155;52.164;21.236;2022-11-14T07:53:17;9.58;;;7.90;;
44452;SDS011;30155;52.164;21.236;2022-11-14T07:58:42;10.85;;;7.97;;
44452;SDS011;30155;52.164;21.236;2022-11-14T08:03:53;10.50;;;7.47;;
44452;SDS011;30155;52.164;21.236;2022-11-14T08:09:14;10.38;;;6.92;;
44452;SDS011;30155;52.164;21.236;2022-11-14T08:14:27;9.83;;;6.28;;
44452;SDS011;30155;52.164;21.236;2022-11-14T08:19:41;10.00;;;7.03;;
44452;SDS011;30155;52.164;21.236;2022-11-14T08:24:55;9.15;;;7.67;;
44452;SDS011;30155;52.164;21.236;2022-11-14T08:30:11;7.53;;;5.62;;
44452;SDS011;30155;52.164;21.236;2022-11-14T08:35:31;7.42;;;5.97;;
44452;SDS011;30155;52.164;21.236;2022-11-14T08:41:00;9.20;;;6.40;;
44452;SDS011;30155;52.164;21.236;2022-11-14T08:46:31;10.32;;;7.60;;
44452;SDS011;30155;52.164;21.236;2022-11-14T08:51:40;7.15;;;6.00;;
44452;SDS011;30155;52.164;21.236;2022-11-14T09:02:25;5.80;;;4.95;;
44452;SDS011;30155;52.164;21.236;2022-11-14T09:07:47;6.00;;;4.78;;
44452;SDS011;30155;52.164;21.236;2022-11-14T09:13:13;6.35;;;3.72;;
44452;SDS011;30155;52.164;21.236;2022-11-14T09:18:25;5.35;;;3.67;;
44452;SDS011;30155;52.164;21.236;2022-11-14T09:23:38;4.37;;;3.87;;
44452;SDS011;30155;52.164;21.236;2022-11-14T09:28:56;5.58;;;3.67;;
44452;SDS011;30155;52.164;21.236;2022-11-14T09:34:17;4.15;;;3.35;;
44452;SDS011;30155;52.164;21.236;2022-11-14T09:39:24;4.47;;;3.25;;
44452;SDS011;30155;52.164;21.236;2022-11-14T09:50:13;4.25;;;3.83;;
44452;SDS011;30155;52.164;21.236;2022-11-14T09:55:40;5.05;;;3.00;;
44452;SDS011;30155;52.164;21.236;2022-11-14T10:00:52;4.62;;;2.95;;
44452;SDS011;30155;52.164;21.236;2022-11-14T10:06:16;5.72;;;3.70;;
44452;SDS011;30155;52.164;21.236;2022-11-14T10:28:10;8.65;;;6.65;;
44452;SDS011;30155;52.164;21.236;2022-11-14T10:33:58;10.23;;;6.80;;
44452;SDS011;30155;52.164;21.236;2022-11-14T10:39:22;10.95;;;7.97;;
44452;SDS011;30155;52.164;21.236;2022-11-14T10:44:45;10.68;;;8.43;;
44452;SDS011;30155;52.164;21.236;2022-11-14T10:50:17;12.47;;;8.13;;
44452;SDS011;30155;52.164;21.236;2022-11-14T10:55:48;11.43;;;7.85;;
44452;SDS011;30155;52.164;21.236;2022-11-14T11:06:46;14.28;;;10.10;;
44452;SDS011;30155;52.164;21.236;2022-11-14T11:12:01;15.68;;;10.98;;
44452;SDS011;30155;52.164;21.236;2022-11-14T11:22:37;13.70;;;10.00;;
44452;SDS011;30155;52.164;21.236;2022-11-14T11:27:51;14.00;;;9.68;;
44452;SDS011;30155;52.164;21.236;2022-11-14T11:33:24;9.95;;;7.12;;
44452;SDS011;30155;52.164;21.236;2022-11-14T11:38:36;8.88;;;6.87;;
44452;SDS011;30155;52.164;21.236;2022-11-14T11:43:52;9.25;;;6.28;;
44452;SDS011;30155;52.164;21.236;2022-11-14T11:49:10;8.38;;;6.20;;
44452;SDS011;30155;52.164;21.236;2022-11-14T11:54:29;8.70;;;5.78;;
44452;SDS011;30155;52.164;21.236;2022-11-14T11:59:42;8.23;;;5.15;;
44452;SDS011;30155;52.164;21.236;2022-11-14T12:04:59;8.75;;;6.40;;
44452;SDS011;30155;52.164;21.236;2022-11-14T12:27:03;10.23;;;7.70;;
44452;SDS011;30155;52.164;21.236;2022-11-14T12:32:40;9.43;;;7.25;;
44452;SDS011;30155;52.164;21.236;2022-11-14T12:37:53;11.60;;;9.00;;
44452;SDS011;30155;52.164;21.236;2022-11-14T12:43:23;13.80;;;9.88;;
44452;SDS011;30155;52.164;21.236;2022-11-14T12:48:46;13.35;;;9.60;;
44452;SDS011;30155;52.164;21.236;2022-11-14T12:53:56;14.93;;;9.50;;
44452;SDS011;30155;52.164;21.236;2022-11-14T12:59:31;20.00;;;12.33;;
44452;SDS011;30155;52.164;21.236;2022-11-14T13:04:58;22.22;;;14.63;;
44452;SDS011;30155;52.164;21.236;2022-11-14T13:10:27;28.35;;;17.62;;
44452;SDS011;30155;52.164;21.236;2022-11-14T13:15:48;26.05;;;17.25;;
44452;SDS011;30155;52.164;21.236;2022-11-14T13:21:23;30.55;;;18.55;;
44452;SDS011;30155;52.164;21.236;2022-11-14T13:27:22;30.50;;;17.63;;
44452;SDS011;30155;52.164;21.236;2022-11-14T13:38:01;33.35;;;19.92;;
44452;SDS011;30155;52.164;21.236;2022-11-14T13:43:50;31.30;;;18.52;;
44452;SDS011;30155;52.164;21.236;2022-11-14T13:49:37;23.83;;;15.20;;
44452;SDS011;30155;52.164;21.236;2022-11-14T13:54:49;27.40;;;16.42;;
44452;SDS011;30155;52.164;21.236;2022-11-14T14:17:06;34.27;;;20.35;;
44452;SDS011;30155;52.164;21.236;2022-11-14T14:22:32;32.13;;;20.15;;
44452;SDS011;30155;52.164;21.236;2022-11-14T14:28:56;34.38;;;20.15;;
44452;SDS011;30155;52.164;21.236;2022-11-14T14:33:46;38.17;;;20.68;;
44452;SDS011;30155;52.164;21.236;2022-11-14T14:39:06;34.58;;;20.60;;
44452;SDS011;30155;52.164;21.236;2022-11-14T14:44:36;35.03;;;21.68;;
44452;SDS011;30155;52.164;21.236;2022-11-14T14:49:48;30.12;;;19.90;;
44452;SDS011;30155;52.164;21.236;2022-11-14T14:54:58;34.63;;;20.20;;
44452;SDS011;30155;52.164;21.236;2022-11-14T15:00:18;30.60;;;20.60;;
44452;SDS011;30155;52.164;21.236;2022-11-14T15:05:30;24.37;;;18.80;;
44452;SDS011;30155;52.164;21.236;2022-11-14T15:10:40;27.17;;;18.20;;
44452;SDS011;30155;52.164;21.236;2022-11-14T15:15:50;26.17;;;17.57;;
44452;SDS011;30155;52.164;21.236;2022-11-14T15:21:13;25.50;;;18.00;;
44452;SDS011;30155;52.164;21.236;2022-11-14T15:26:32;22.90;;;16.02;;
44452;SDS011;30155;52.164;21.236;2022-11-14T15:31:48;23.25;;;17.73;;
44452;SDS011;30155;52.164;21.236;2022-11-14T15:42:28;21.33;;;14.80;;
44452;SDS011;30155;52.164;21.236;2022-11-14T15:47:38;23.67;;;18.12;;
44452;SDS011;30155;52.164;21.236;2022-11-14T15:52:49;21.65;;;15.72;;
44452;SDS011;30155;52.164;21.236;2022-11-14T15:58:12;25.10;;;16.50;;
44452;SDS011;30155;52.164;21.236;2022-11-14T16:03:22;23.30;;;16.67;;
44452;SDS011;30155;52.164;21.236;2022-11-14T16:08:32;22.15;;;15.15;;
44452;SDS011;30155;52.164;21.236;2022-11-14T16:13:41;23.25;;;16.07;;
44452;SDS011;30155;52.164;21.236;2022-11-14T16:18:51;20.65;;;15.10;;
44452;SDS011;30155;52.164;21.236;2022-11-14T16:24:00;23.10;;;16.37;;
44452;SDS011;30155;52.164;21.236;2022-11-14T16:29:10;20.88;;;15.75;;
44452;SDS011;30155;52.164;21.236;2022-11-14T16:34:21;20.08;;;14.38;;
44452;SDS011;30155;52.164;21.236;2022-11-14T16:39:34;21.90;;;15.48;;
44452;SDS011;30155;52.164;21.236;2022-11-14T16:44:47;21.52;;;14.78;;
44452;SDS011;30155;52.164;21.236;2022-11-14T16:49:56;18.73;;;14.53;;
44452;SDS011;30155;52.164;21.236;2022-11-14T16:55:07;20.12;;;14.20;;
44452;SDS011;30155;52.164;21.236;2022-11-14T17:00:19;17.55;;;14.23;;
44452;SDS011;30155;52.164;21.236;2022-11-14T17:05:41;17.62;;;13.10;;
44452;SDS011;30155;52.164;21.236;2022-11-14T17:10:53;17.20;;;12.75;;
44452;SDS011;30155;52.164;21.236;2022-11-14T17:16:03;16.62;;;12.35;;
44452;SDS011;30155;52.164;21.236;2022-11-14T17:21:14;15.72;;;12.33;;
44452;SDS011;30155;52.164;21.236;2022-11-14T17:26:24;18.42;;;13.78;;
44452;SDS011;30155;52.164;21.236;2022-11-14T17:31:34;15.58;;;12.98;;
44452;SDS011;30155;52.164;21.236;2022-11-14T17:36:43;17.32;;;13.38;;
44452;SDS011;30155;52.164;21.236;2022-11-14T17:41:53;19.70;;;15.18;;
44452;SDS011;30155;52.164;21.236;2022-11-14T17:47:02;18.27;;;13.88;;
44452;SDS011;30155;52.164;21.236;2022-11-14T17:52:12;18.48;;;13.22;;
44452;SDS011;30155;52.164;21.236;2022-11-14T17:57:22;16.05;;;12.45;;
44452;SDS011;30155;52.164;21.236;2022-11-14T18:02:31;18.07;;;13.75;;
44452;SDS011;30155;52.164;21.236;2022-11-14T18:07:43;15.98;;;11.83;;
44452;SDS011;30155;52.164;21.236;2022-11-14T18:12:53;14.75;;;11.95;;
44452;SDS011;30155;52.164;21.236;2022-11-14T18:18:02;14.40;;;11.22;;
44452;SDS011;30155;52.164;21.236;2022-11-14T18:23:13;14.68;;;11.03;;
44452;SDS011;30155;52.164;21.236;2022-11-14T18:28:35;15.00;;;11.65;;
44452;SDS011;30155;52.164;21.236;2022-11-14T18:33:45;14.40;;;10.90;;
44452;SDS011;30155;52.164;21.236;2022-11-14T18:38:55;12.88;;;9.88;;
44452;SDS011;30155;52.164;21.236;2022-11-14T18:44:05;15.53;;;12.00;;
44452;SDS011;30155;52.164;21.236;2022-11-14T18:49:15;14.80;;;12.05;;
44452;SDS011;30155;52.164;21.236;2022-11-14T18:54:25;16.05;;;11.45;;
44452;SDS011;30155;52.164;21.236;2022-11-14T18:59:34;15.38;;;12.30;;
44452;SDS011;30155;52.164;21.236;2022-11-14T19:04:44;19.67;;;11.83;;
44452;SDS011;30155;52.164;21.236;2022-11-14T19:09:53;20.90;;;17.02;;
44452;SDS011;30155;52.164;21.236;2022-11-14T19:15:03;28.83;;;22.40;;
44452;SDS011;30155;52.164;21.236;2022-11-14T19:20:13;15.63;;;12.98;;
44452;SDS011;30155;52.164;21.236;2022-11-14T19:25:23;17.25;;;12.68;;
44452;SDS011;30155;52.164;21.236;2022-11-14T19:30:33;15.85;;;13.32;;
44452;SDS011;30155;52.164;21.236;2022-11-14T19:35:42;15.28;;;11.88;;
44452;SDS011;30155;52.164;21.236;2022-11-14T19:40:52;17.62;;;13.45;;
44452;SDS011;30155;52.164;21.236;2022-11-14T19:46:01;18.02;;;13.18;;
44452;SDS011;30155;52.164;21.236;2022-11-14T19:51:14;18.65;;;13.80;;
44452;SDS011;30155;52.164;21.236;2022-11-14T19:56:26;18.52;;;14.23;;
44452;SDS011;30155;52.164;21.236;2022-11-14T20:01:36;17.17;;;13.05;;
44452;SDS011;30155;52.164;21.236;2022-11-14T20:06:46;17.48;;;12.35;;
44452;SDS011;30155;52.164;21.236;2022-11-14T20:11:56;17.55;;;13.30;;
44452;SDS011;30155;52.164;21.236;2022-11-14T20:17:05;17.98;;;13.50;;
44452;SDS011;30155;52.164;21.236;2022-11-14T20:22:15;15.43;;;12.47;;
44452;SDS011;30155;52.164;21.236;2022-11-14T20:27:26;17.75;;;13.83;;
44452;SDS011;30155;52.164;21.236;2022-11-14T20:32:35;20.30;;;12.58;;
44452;SDS011;30155;52.164;21.236;2022-11-14T20:37:44;19.12;;;13.88;;
44452;SDS011;30155;52.164;21.236;2022-11-14T20:42:56;21.82;;;14.73;;
44452;SDS011;30155;52.164;21.236;2022-11-14T20:48:06;17.55;;;14.05;;
44452;SDS011;30155;52.164;21.236;2022-11-14T20:53:15;17.50;;;12.93;;
44452;SDS011;30155;52.164;21.236;2022-11-14T20:58:26;17.95;;;13.18;;
44452;SDS011;30155;52.164;21.236;2022-11-14T21:03:36;18.35;;;13.38;;
44452;SDS011;30155;52.164;21.236;2022-11-14T21:08:47;19.67;;;13.93;;
44452;SDS011;30155;52.164;21.236;2022-11-14T21:13:56;18.42;;;14.07;;
44452;SDS011;30155;52.164;21.236;2022-11-14T21:19:15;17.95;;;13.55;;
44452;SDS011;30155;52.164;21.236;2022-11-14T21:24:24;16.40;;;12.75;;
44452;SDS011;30155;52.164;21.236;2022-11-14T21:29:34;17.57;;;13.90;;
44452;SDS011;30155;52.164;21.236;2022-11-14T21:34:43;17.30;;;12.15;;
44452;SDS011;30155;52.164;21.236;2022-11-14T21:39:53;19.23;;;13.85;;
44452;SDS011;30155;52.164;21.236;2022-11-14T21:45:03;19.90;;;14.50;;
44452;SDS011;30155;52.164;21.236;2022-11-14T21:50:14;18.32;;;13.50;;
44452;SDS011;30155;52.164;21.236;2022-11-14T22:01:32;18.65;;;14.28;;
44452;SDS011;30155;52.164;21.236;2022-11-14T22:07:02;16.75;;;12.85;;
44452;SDS011;30155;52.164;21.236;2022-11-14T22:12:14;16.65;;;12.90;;
44452;SDS011;30155;52.164;21.236;2022-11-14T22:17:24;18.30;;;13.93;;
44452;SDS011;30155;52.164;21.236;2022-11-14T22:22:36;18.12;;;13.20;;
44452;SDS011;30155;52.164;21.236;2022-11-14T22:27:46;17.23;;;13.25;;
44452;SDS011;30155;52.164;21.236;2022-11-14T22:32:57;16.97;;;12.88;;
44452;SDS011;30155;52.164;21.236;2022-11-14T22:38:08;18.65;;;13.62;;
44452;SDS011;30155;52.164;21.236;2022-11-14T22:43:17;20.65;;;15.53;;
44452;SDS011;30155;52.164;21.236;2022-11-14T22:48:31;19.70;;;14.75;;
44452;SDS011;30155;52.164;21.236;2022-11-14T22:53:44;17.62;;;12.68;;
44452;SDS011;30155;52.164;21.236;2022-11-14T22:58:58;18.70;;;14.55;;
44452;SDS011;30155;52.164;21.236;2022-11-14T23:15:45;18.25;;;13.90;;
44452;SDS011;30155;52.164;21.236;2022-11-14T23:21:15;19.82;;;16.55;;
44452;SDS011;30155;52.164;21.236;2022-11-14T23:26:47;19.75;;;14.50;;
44452;SDS011;30155;52.164;21.236;2022-11-14T23:32:04;23.70;;;18.00;;
44452;SDS011;30155;52.164;21.236;2022-11-14T23:37:22;23.18;;;16.42;;
44452;SDS011;30155;52.164;21.236;2022-11-14T23:42:40;25.88;;;19.10;;
44452;SDS011;30155;52.164;21.236;2022-11-14T23:47:55;24.18;;;17.55;;
44452;SDS011;30155;52.164;21.236;2022-11-14T23:53:05;21.17;;;16.50;;
44452;SDS011;30155;52.164;21.236;2022-11-14T23:58:15;23.60;;;17.87;;
